createdAt,value
2022-10-19T00:01:09.436Z,2.00
2022-10-19T00:03:39.669Z,2.27
2022-10-19T00:06:13.506Z,2.50
2022-10-19T00:08:41.670Z,2.27
2022-10-19T00:11:10.406Z,2.20
2022-10-19T00:13:39.117Z,2.50
2022-10-19T00:16:11.559Z,2.50
2022-10-19T00:18:43.337Z,2.50
2022-10-19T00:21:13.215Z,2.40
2022-10-19T00:23:41.674Z,2.30
2022-10-19T00:26:09.877Z,2.83
2022-10-19T00:28:38.256Z,1.77
2022-10-19T00:31:07.515Z,2.47
2022-10-19T00:33:35.731Z,2.73
2022-10-19T00:36:06.581Z,2.57
2022-10-19T00:38:34.793Z,2.70
2022-10-19T00:41:04.026Z,2.40
2022-10-19T00:43:32.729Z,3.10
2022-10-19T00:46:01.092Z,3.87
2022-10-19T00:48:33.279Z,2.10
2022-10-19T00:51:01.826Z,2.70
2022-10-19T00:53:32.242Z,2.50
2022-10-19T00:56:04.320Z,2.67
2022-10-19T00:58:32.620Z,2.60
2022-10-19T01:01:04.369Z,2.40
2022-10-19T01:03:33.309Z,1.90
2022-10-19T01:06:01.817Z,2.70
2022-10-19T01:08:32.051Z,2.53
2022-10-19T01:11:11.585Z,2.50
2022-10-19T01:13:47.673Z,2.90
2022-10-19T01:16:22.214Z,2.97
2022-10-19T01:18:58.843Z,2.07
2022-10-19T01:21:29.753Z,2.33
2022-10-19T01:24:24.145Z,2.10
2022-10-19T01:27:35.081Z,1.90
2022-10-19T01:30:30.159Z,2.87
2022-10-19T01:33:15.003Z,2.63
2022-10-19T01:35:51.300Z,1.93
2022-10-19T01:38:26.131Z,2.20
2022-10-19T01:41:00.379Z,2.30
2022-10-19T01:43:41.464Z,1.90
2022-10-19T01:46:15.399Z,1.87
2022-10-19T01:48:50.467Z,2.07
2022-10-19T01:51:23.098Z,2.50
2022-10-19T01:53:54.441Z,2.27
2022-10-19T01:56:27.533Z,2.10
2022-10-19T01:58:57.916Z,1.47
2022-10-19T02:01:32.260Z,2.37
2022-10-19T02:04:01.912Z,2.23
2022-10-19T02:06:30.253Z,1.97
2022-10-19T02:08:58.573Z,1.90
2022-10-19T02:11:26.815Z,2.27
2022-10-19T02:13:59.444Z,2.03
2022-10-19T02:16:33.515Z,2.10
2022-10-19T02:19:03.428Z,2.90
2022-10-19T02:21:33.331Z,2.07
2022-10-19T02:24:01.787Z,1.90
2022-10-19T02:26:29.923Z,2.53
2022-10-19T02:28:59.020Z,1.70
2022-10-19T02:31:28.925Z,1.93
2022-10-19T02:33:57.407Z,1.90
2022-10-19T02:36:26.072Z,2.10
2022-10-19T02:38:54.251Z,2.10
2022-10-19T02:41:28.133Z,2.23
2022-10-19T02:44:01.858Z,2.23
2022-10-19T02:46:37.271Z,2.00
2022-10-19T02:49:07.352Z,1.80
2022-10-19T02:51:36.906Z,2.03
2022-10-19T02:54:06.871Z,2.23
2022-10-19T02:56:36.321Z,2.20
2022-10-19T02:59:04.617Z,2.37
2022-10-19T03:01:34.249Z,2.30
2022-10-19T03:04:02.558Z,1.90
2022-10-19T03:06:30.666Z,1.80
2022-10-19T03:08:58.801Z,2.33
2022-10-19T03:11:26.873Z,1.43
2022-10-19T03:13:55.055Z,1.60
2022-10-19T03:16:23.115Z,1.70
2022-10-19T03:18:52.923Z,2.00
2022-10-19T03:21:21.006Z,1.80
2022-10-19T03:23:49.673Z,2.90
2022-10-19T03:26:19.370Z,1.90
2022-10-19T03:28:47.624Z,2.10
2022-10-19T03:31:15.823Z,1.93
2022-10-19T03:33:43.997Z,2.70
2022-10-19T03:36:26.026Z,1.87
2022-10-19T03:38:55.155Z,2.10
2022-10-19T03:41:24.995Z,1.80
2022-10-19T03:43:53.236Z,2.83
2022-10-19T03:46:22.230Z,1.80
2022-10-19T03:48:51.044Z,2.13
2022-10-19T03:51:22.579Z,2.20
2022-10-19T03:53:54.215Z,2.23
2022-10-19T03:56:24.833Z,2.00
2022-10-19T03:58:54.936Z,2.30
2022-10-19T04:01:24.941Z,2.30
2022-10-19T04:03:54.564Z,2.20
2022-10-19T04:06:26.483Z,2.00
2022-10-19T04:08:54.692Z,2.00
2022-10-19T04:11:24.695Z,1.80
2022-10-19T04:13:53.873Z,1.83
2022-10-19T04:16:23.276Z,2.10
2022-10-19T04:18:52.483Z,2.50
2022-10-19T04:21:24.418Z,2.10
2022-10-19T04:23:53.925Z,1.97
2022-10-19T04:26:22.365Z,2.00
2022-10-19T04:28:50.569Z,2.40
2022-10-19T04:31:18.790Z,2.20
2022-10-19T04:36:15.032Z,3.13
2022-10-19T04:38:44.528Z,2.30
2022-10-19T04:41:14.565Z,2.30
2022-10-19T04:43:45.190Z,2.97
2022-10-19T04:46:14.979Z,2.50
2022-10-19T04:48:43.217Z,2.50
2022-10-19T04:51:12.061Z,2.90
2022-10-19T04:53:43.052Z,2.30
2022-10-19T04:56:14.391Z,2.57
2022-10-19T04:58:42.606Z,2.07
2022-10-19T05:01:11.654Z,2.80
2022-10-19T05:03:40.568Z,2.93
2022-10-19T05:06:10.023Z,2.80
2022-10-19T05:08:40.369Z,3.60
2022-10-19T05:11:10.225Z,3.20
2022-10-19T05:13:44.107Z,2.57
2022-10-19T05:16:15.033Z,3.10
2022-10-19T05:18:43.529Z,2.60
2022-10-19T05:21:13.768Z,2.20
2022-10-19T05:23:43.039Z,2.97
2022-10-19T05:26:12.939Z,3.10
2022-10-19T05:28:42.613Z,2.20
2022-10-19T05:31:12.049Z,2.73
2022-10-19T05:33:40.879Z,2.80
2022-10-19T05:36:17.771Z,2.60
2022-10-19T05:38:47.396Z,3.03
2022-10-19T05:41:16.318Z,2.83
2022-10-19T05:43:47.843Z,2.90
2022-10-19T05:46:18.677Z,2.57
2022-10-19T05:48:48.061Z,2.70
2022-10-19T05:51:18.151Z,2.63
2022-10-19T05:53:46.596Z,2.43
2022-10-19T05:56:17.580Z,2.10
2022-10-19T05:58:47.941Z,2.83
2022-10-19T06:01:18.978Z,3.20
2022-10-19T06:03:48.121Z,2.97
2022-10-19T06:06:16.309Z,3.07
2022-10-19T06:08:44.469Z,3.90
2022-10-19T06:11:14.791Z,2.40
2022-10-19T06:13:44.032Z,3.10
2022-10-19T06:16:16.115Z,2.73
2022-10-19T06:18:44.412Z,2.70
2022-10-19T06:21:15.081Z,2.90
2022-10-19T06:23:43.766Z,3.23
2022-10-19T06:26:13.784Z,2.77
2022-10-19T06:28:44.234Z,2.83
2022-10-19T06:31:14.848Z,2.40
2022-10-19T06:33:45.978Z,1.93
2022-10-19T06:36:18.264Z,2.47
2022-10-19T06:38:46.560Z,1.90
2022-10-19T06:41:15.158Z,2.00
2022-10-19T06:43:43.968Z,2.00
2022-10-19T06:46:20.284Z,2.23
2022-10-19T06:48:52.574Z,2.03
2022-10-19T06:51:21.757Z,1.87
2022-10-19T06:53:52.811Z,1.97
2022-10-19T06:56:25.168Z,2.60
2022-10-19T06:58:53.687Z,1.63
2022-10-19T07:01:24.223Z,2.10
2022-10-19T07:03:52.923Z,1.70
2022-10-19T07:06:21.405Z,2.27
2022-10-19T07:08:49.980Z,2.00
2022-10-19T07:11:20.299Z,2.60
2022-10-19T07:13:48.536Z,2.00
2022-10-19T07:16:21.142Z,2.60
2022-10-19T07:18:52.927Z,2.37
2022-10-19T07:21:22.635Z,2.20
2022-10-19T07:23:51.270Z,2.17
2022-10-19T07:26:24.119Z,2.17
2022-10-19T07:28:52.838Z,2.57
2022-10-19T07:31:28.652Z,1.90
2022-10-19T07:34:02.839Z,2.30
2022-10-19T07:36:33.593Z,2.10
2022-10-19T07:39:03.460Z,2.50
2022-10-19T07:41:31.704Z,1.73
2022-10-19T07:43:59.910Z,2.00
2022-10-19T07:46:33.392Z,1.90
2022-10-19T07:49:03.205Z,1.60
2022-10-19T07:51:31.778Z,2.10
2022-10-19T07:54:00.522Z,2.80
2022-10-19T07:56:29.579Z,2.20
2022-10-19T07:58:59.076Z,2.67
2022-10-19T08:01:29.388Z,2.23
2022-10-19T08:06:50.140Z,1.80
2022-10-19T08:09:39.905Z,2.27
2022-10-19T08:12:07.136Z,2.07
2022-10-19T08:14:36.553Z,2.10
2022-10-19T08:17:04.741Z,2.33
2022-10-19T08:19:32.910Z,1.70
2022-10-19T08:22:02.839Z,1.50
2022-10-19T08:24:32.466Z,1.87
2022-10-19T08:27:02.590Z,1.63
2022-10-19T08:29:31.694Z,1.90
2022-10-19T08:32:00.648Z,1.50
2022-10-19T08:34:29.049Z,2.30
2022-10-19T08:36:57.281Z,2.37
2022-10-19T08:39:26.888Z,2.13
2022-10-19T08:42:02.323Z,2.27
2022-10-19T08:45:00.053Z,1.50
2022-10-19T08:47:40.596Z,2.00
2022-10-19T08:50:19.052Z,1.60
2022-10-19T08:52:52.063Z,1.80
2022-10-19T08:55:29.228Z,1.87
2022-10-19T08:58:05.008Z,1.87
2022-10-19T09:00:42.149Z,1.47
2022-10-19T09:03:27.155Z,2.20
2022-10-19T09:06:16.429Z,1.77
2022-10-19T09:08:44.972Z,1.97
2022-10-19T09:11:15.513Z,2.17
2022-10-19T09:14:04.359Z,2.10
2022-10-19T09:16:34.980Z,2.67
2022-10-19T09:19:04.440Z,1.83
2022-10-19T09:21:47.492Z,1.50
2022-10-19T09:24:31.300Z,1.87
2022-10-19T09:27:03.381Z,2.07
2022-10-19T09:29:38.874Z,1.90
2022-10-19T09:32:16.353Z,1.80
2022-10-19T09:34:47.562Z,1.63
2022-10-19T09:37:23.301Z,1.73
2022-10-19T09:39:55.652Z,1.70
2022-10-19T09:42:29.415Z,2.27
2022-10-19T09:44:59.633Z,2.17
2022-10-19T09:47:36.345Z,2.27
2022-10-19T09:50:15.178Z,1.90
2022-10-19T09:52:44.494Z,1.77
2022-10-19T09:55:24.852Z,1.93
2022-10-19T09:58:04.994Z,1.87
2022-10-19T10:00:36.970Z,1.93
2022-10-19T10:03:06.380Z,1.83
2022-10-19T10:05:37.042Z,1.80
2022-10-19T10:08:07.319Z,2.53
2022-10-19T10:10:39.929Z,2.23
2022-10-19T10:13:16.879Z,1.77
2022-10-19T10:15:48.831Z,2.40
2022-10-19T10:18:19.962Z,1.80
2022-10-19T10:21:03.913Z,2.20
2022-10-19T10:23:36.448Z,1.90
2022-10-19T10:26:07.124Z,2.23
2022-10-19T10:28:48.373Z,1.70
2022-10-19T10:31:20.306Z,2.10
2022-10-19T10:33:55.656Z,1.90
2022-10-19T10:36:27.812Z,1.50
2022-10-19T10:41:37.880Z,2.30
2022-10-19T10:44:17.554Z,2.67
2022-10-19T10:46:53.754Z,1.87
2022-10-19T10:49:25.545Z,1.90
2022-10-19T10:51:57.036Z,2.93
2022-10-19T10:54:27.114Z,2.50
2022-10-19T10:57:12.619Z,1.93
2022-10-19T10:59:53.025Z,2.77
2022-10-19T11:02:32.306Z,2.43
2022-10-19T11:05:05.732Z,3.03
2022-10-19T11:07:36.834Z,1.87
2022-10-19T11:10:09.979Z,2.10
2022-10-19T11:12:41.012Z,2.20
2022-10-19T11:15:20.814Z,2.00
2022-10-19T11:18:00.201Z,2.67
2022-10-19T11:20:32.116Z,2.80
2022-10-19T11:23:08.505Z,2.60
2022-10-19T11:25:49.430Z,2.30
2022-10-19T11:28:39.772Z,2.03
2022-10-19T11:31:17.353Z,2.50
2022-10-19T11:33:55.835Z,1.90
2022-10-19T11:36:38.696Z,2.20
2022-10-19T11:39:27.739Z,2.37
2022-10-19T11:42:06.354Z,2.40
2022-10-19T11:44:43.905Z,1.97
2022-10-19T11:47:30.892Z,2.27
2022-10-19T11:50:10.997Z,3.33
2022-10-19T11:52:49.118Z,2.23
2022-10-19T11:55:38.840Z,2.10
2022-10-19T11:58:21.823Z,1.63
2022-10-19T12:00:58.197Z,1.97
2022-10-19T12:04:03.764Z,2.50
2022-10-19T12:06:40.937Z,2.27
2022-10-19T12:09:28.370Z,2.40
2022-10-19T12:12:08.168Z,2.00
2022-10-19T12:14:40.715Z,2.07
2022-10-19T12:19:46.766Z,2.60
2022-10-19T12:22:19.686Z,3.13
2022-10-19T12:24:50.869Z,3.23
2022-10-19T12:27:24.884Z,3.90
2022-10-19T12:29:55.987Z,3.83
2022-10-19T12:32:29.974Z,5.70
2022-10-19T12:35:06.634Z,2.17
2022-10-19T12:37:42.375Z,1.77
2022-10-19T12:40:24.963Z,2.47
2022-10-19T12:43:00.679Z,2.00
2022-10-19T12:45:32.057Z,2.53
2022-10-19T12:48:21.166Z,1.97
2022-10-19T12:51:06.224Z,2.20
2022-10-19T12:53:38.236Z,3.57
2022-10-19T12:56:08.878Z,2.43
2022-10-19T12:58:47.720Z,1.97
2022-10-19T13:01:21.162Z,2.30
2022-10-19T13:03:52.342Z,1.87
2022-10-19T13:06:33.872Z,2.03
2022-10-19T13:09:05.243Z,1.73
2022-10-19T13:14:28.252Z,1.67
2022-10-19T13:17:01.817Z,2.77
2022-10-19T13:19:30.723Z,2.90
2022-10-19T13:22:28.607Z,2.00
2022-10-19T13:25:27.250Z,2.43
2022-10-19T13:27:57.520Z,1.40
2022-10-19T13:31:06.139Z,2.93
2022-10-19T13:33:53.617Z,1.57
2022-10-19T13:36:24.343Z,1.87
2022-10-19T13:39:15.280Z,1.67
2022-10-19T13:41:57.365Z,1.73
2022-10-19T13:44:33.876Z,1.80
2022-10-19T13:47:41.215Z,1.80
2022-10-19T13:50:33.376Z,1.37
2022-10-19T13:53:24.567Z,1.60
2022-10-19T13:56:23.786Z,2.30
2022-10-19T13:59:33.805Z,1.40
2022-10-19T14:02:50.811Z,1.87
2022-10-19T14:05:48.142Z,3.87
2022-10-19T14:08:32.404Z,2.17
2022-10-19T14:11:03.429Z,3.60
2022-10-19T14:13:32.771Z,3.70
2022-10-19T14:16:03.002Z,5.97
2022-10-19T14:18:33.540Z,14.00
2022-10-19T14:21:05.501Z,22.70
2022-10-19T14:23:35.965Z,20.03
2022-10-19T14:26:06.797Z,7.87
2022-10-19T14:28:35.648Z,4.80
2022-10-19T14:31:06.738Z,7.43
2022-10-19T14:33:37.154Z,4.50
2022-10-19T14:36:08.463Z,12.30
2022-10-19T14:38:39.452Z,7.03
2022-10-19T14:41:20.030Z,3.10
2022-10-19T14:43:48.402Z,2.10
2022-10-19T14:46:17.809Z,1.73
2022-10-19T14:48:48.428Z,1.83
2022-10-19T14:51:30.358Z,2.10
2022-10-19T14:54:03.935Z,2.93
2022-10-19T14:56:35.918Z,18.17
2022-10-19T14:59:07.393Z,4.63
2022-10-19T15:01:37.218Z,2.03
2022-10-19T15:04:06.070Z,1.90
2022-10-19T15:06:42.326Z,2.30
2022-10-19T15:09:30.466Z,2.00
2022-10-19T15:12:11.263Z,2.40
2022-10-19T15:14:39.855Z,1.80
2022-10-19T15:17:23.833Z,1.80
2022-10-19T15:19:53.636Z,2.00
2022-10-19T15:22:26.791Z,2.33
2022-10-19T15:25:04.353Z,2.43
2022-10-19T15:27:34.912Z,2.37
2022-10-19T15:30:06.009Z,2.37
2022-10-19T15:32:37.361Z,2.00
2022-10-19T15:35:19.017Z,2.00
2022-10-19T15:37:51.212Z,1.93
2022-10-19T15:40:24.476Z,1.60
2022-10-19T15:42:53.233Z,2.53
2022-10-19T15:45:35.852Z,3.13
2022-10-19T15:48:26.588Z,3.23
2022-10-19T15:50:55.874Z,18.47
2022-10-19T15:53:26.836Z,14.90
2022-10-19T15:55:55.257Z,6.60
2022-10-19T15:58:23.496Z,3.90
2022-10-19T16:00:51.975Z,3.33
2022-10-19T16:03:20.179Z,5.70
2022-10-19T16:05:48.314Z,13.03
2022-10-19T16:08:16.587Z,23.40
2022-10-19T16:10:46.017Z,27.00
2022-10-19T16:13:14.173Z,33.10
2022-10-19T16:15:42.303Z,27.43
2022-10-19T16:18:11.442Z,31.20
2022-10-19T16:20:40.343Z,44.23
2022-10-19T16:23:08.862Z,39.83
2022-10-19T16:25:37.590Z,35.10
2022-10-19T16:28:07.058Z,28.67
2022-10-19T16:30:35.393Z,19.10
2022-10-19T16:33:03.682Z,15.77
2022-10-19T16:35:31.771Z,11.17
2022-10-19T16:37:59.952Z,10.47
2022-10-19T16:40:28.563Z,8.23
2022-10-19T16:42:58.782Z,7.40
2022-10-19T16:45:28.265Z,8.20
2022-10-19T16:47:56.320Z,6.70
2022-10-19T16:50:24.580Z,5.47
2022-10-19T16:53:05.774Z,5.47
2022-10-19T16:55:33.875Z,4.27
2022-10-19T16:58:02.022Z,4.20
2022-10-19T17:00:31.463Z,6.27
2022-10-19T17:02:59.649Z,8.20
2022-10-19T17:05:27.698Z,11.10
2022-10-19T17:07:55.757Z,10.90
2022-10-19T17:10:23.967Z,8.97
2022-10-19T17:12:52.108Z,37.93
2022-10-19T17:18:09.859Z,30.53
2022-10-19T17:20:38.201Z,24.30
2022-10-19T17:23:06.322Z,15.97
2022-10-19T17:25:34.401Z,13.30
2022-10-19T17:28:02.670Z,10.40
2022-10-19T17:30:30.673Z,10.30
2022-10-19T17:32:58.756Z,8.63
2022-10-19T17:35:28.159Z,7.20
2022-10-19T17:37:56.192Z,7.10
2022-10-19T17:40:24.235Z,6.87
2022-10-19T17:42:52.335Z,8.20
2022-10-19T17:45:20.358Z,10.00
2022-10-19T17:47:48.428Z,11.97
2022-10-19T17:50:16.655Z,10.53
2022-10-19T17:52:46.729Z,9.63
2022-10-19T17:55:14.919Z,13.87
2022-10-19T17:57:43.172Z,11.87
2022-10-19T18:00:12.137Z,9.80
2022-10-19T18:02:45.458Z,7.50
2022-10-19T18:05:13.650Z,8.23
2022-10-19T18:07:46.524Z,8.30
2022-10-19T18:10:15.477Z,9.17
2022-10-19T18:12:43.619Z,8.57
2022-10-19T18:15:11.882Z,8.67
2022-10-19T18:17:40.123Z,11.93
2022-10-19T18:20:09.653Z,12.57
2022-10-19T18:22:37.828Z,11.87
2022-10-19T18:25:08.189Z,12.13
2022-10-19T18:27:36.470Z,10.33
2022-10-19T18:30:05.105Z,11.03
2022-10-19T18:32:33.376Z,10.90
2022-10-19T18:35:01.616Z,10.53
2022-10-19T18:37:29.717Z,11.33
2022-10-19T18:39:57.713Z,11.97
2022-10-19T18:42:27.162Z,11.70
2022-10-19T18:44:55.191Z,12.07
2022-10-19T18:47:23.230Z,12.70
2022-10-19T18:49:51.233Z,13.93
2022-10-19T18:52:19.372Z,13.30
2022-10-19T18:54:47.385Z,13.07
2022-10-19T18:57:15.599Z,11.57
2022-10-19T18:59:44.989Z,9.70
2022-10-19T19:02:22.230Z,9.80
2022-10-19T19:04:50.942Z,10.30
2022-10-19T19:07:19.459Z,9.90
2022-10-19T19:09:47.466Z,9.43
2022-10-19T19:12:15.991Z,10.90
2022-10-19T19:14:45.597Z,8.10
2022-10-19T19:17:13.659Z,7.50
2022-10-19T19:19:41.945Z,6.80
2022-10-19T19:22:10.061Z,7.30
2022-10-19T19:24:38.097Z,6.87
2022-10-19T19:27:07.557Z,6.40
2022-10-19T19:29:35.713Z,6.90
2022-10-19T19:32:05.425Z,7.07
2022-10-19T19:34:33.505Z,6.77
2022-10-19T19:37:01.552Z,7.83
2022-10-19T19:39:29.660Z,7.17
2022-10-19T19:41:57.744Z,6.97
2022-10-19T19:44:29.525Z,6.63
2022-10-19T19:46:57.647Z,6.67
2022-10-19T19:49:27.694Z,6.97
2022-10-19T19:51:56.290Z,6.80
2022-10-19T19:54:25.214Z,6.70
2022-10-19T19:56:54.169Z,6.67
2022-10-19T19:59:22.390Z,6.50
2022-10-19T20:01:50.505Z,7.47
2022-10-19T20:04:19.846Z,8.13
2022-10-19T20:06:49.330Z,7.67
2022-10-19T20:09:17.592Z,7.83
2022-10-19T20:11:45.683Z,7.90
2022-10-19T20:14:14.010Z,7.80
2022-10-19T20:16:42.214Z,7.30
2022-10-19T20:19:12.179Z,6.77
2022-10-19T20:21:40.955Z,7.37
2022-10-19T20:24:10.660Z,7.20
2022-10-19T20:26:38.925Z,8.30
2022-10-19T20:29:07.054Z,7.23
2022-10-19T20:31:40.334Z,7.53
2022-10-19T20:34:10.712Z,7.97
2022-10-19T20:36:38.771Z,7.57
2022-10-19T20:39:07.065Z,7.00
2022-10-19T20:41:36.666Z,6.97
2022-10-19T20:44:04.964Z,6.63
2022-10-19T20:46:33.240Z,7.20
2022-10-19T20:49:02.529Z,6.50
2022-10-19T20:51:32.917Z,8.10
2022-10-19T20:54:03.044Z,7.57
2022-10-19T20:56:33.049Z,7.87
2022-10-19T20:59:04.315Z,7.47
2022-10-19T21:01:34.879Z,7.33
2022-10-19T21:04:04.960Z,7.60
2022-10-19T21:06:35.711Z,6.77
2022-10-19T21:09:04.257Z,6.73
2022-10-19T21:11:34.527Z,7.03
2022-10-19T21:14:06.797Z,7.10
2022-10-19T21:16:35.351Z,7.27
2022-10-19T21:19:05.506Z,5.63
2022-10-19T21:21:35.903Z,7.07
2022-10-19T21:24:07.133Z,9.10
2022-10-19T21:26:37.424Z,7.47
2022-10-19T21:29:09.557Z,5.90
2022-10-19T21:31:38.929Z,5.77
2022-10-19T21:34:08.190Z,6.97
2022-10-19T21:36:36.438Z,6.90
2022-10-19T21:39:05.143Z,6.53
2022-10-19T21:41:33.481Z,7.03
2022-10-19T21:44:02.216Z,6.37
2022-10-19T21:46:31.830Z,6.47
2022-10-19T21:48:59.973Z,5.10
2022-10-19T21:51:34.840Z,6.30
2022-10-19T21:54:03.571Z,5.53
2022-10-19T21:56:32.365Z,5.43
2022-10-19T21:59:00.645Z,5.37
2022-10-19T22:01:37.120Z,4.70
2022-10-19T22:04:09.700Z,5.23
2022-10-19T22:06:38.184Z,5.67
2022-10-19T22:09:09.005Z,4.60
2022-10-19T22:11:37.212Z,5.43
2022-10-19T22:14:05.941Z,5.00
2022-10-19T22:16:36.732Z,5.27
2022-10-19T22:19:05.978Z,5.03
2022-10-19T22:21:35.655Z,4.90
2022-10-19T22:24:07.311Z,5.20
2022-10-19T22:26:37.580Z,5.00
2022-10-19T22:29:07.076Z,4.60
2022-10-19T22:31:38.017Z,4.83
2022-10-19T22:34:09.272Z,4.90
2022-10-19T22:36:37.886Z,5.30
2022-10-19T22:39:06.650Z,4.70
2022-10-19T22:41:34.716Z,4.90
2022-10-19T22:44:02.828Z,4.47
2022-10-19T22:46:30.923Z,4.50
2022-10-19T22:49:00.507Z,4.83
2022-10-19T22:51:28.826Z,5.57
2022-10-19T22:53:56.900Z,5.10
2022-10-19T22:56:25.165Z,4.80
2022-10-19T22:58:53.295Z,4.10
2022-10-19T23:01:21.387Z,4.80
2022-10-19T23:03:49.448Z,4.80
2022-10-19T23:06:18.989Z,4.40
2022-10-19T23:08:47.616Z,4.67
2022-10-19T23:11:16.127Z,4.53
2022-10-19T23:13:44.216Z,4.23
2022-10-19T23:16:12.326Z,4.97
2022-10-19T23:18:42.117Z,4.50
2022-10-19T23:21:13.614Z,4.90
2022-10-19T23:23:43.716Z,5.27
2022-10-19T23:26:14.561Z,4.83
2022-10-19T23:28:44.479Z,4.70
2022-10-19T23:31:14.153Z,5.43
2022-10-19T23:33:42.864Z,4.83
2022-10-19T23:36:14.397Z,5.00
2022-10-19T23:38:45.252Z,5.20
2022-10-19T23:41:14.305Z,4.90
2022-10-19T23:43:42.699Z,3.90
2022-10-19T23:46:10.798Z,4.70
2022-10-19T23:48:39.102Z,5.97
2022-10-19T23:51:09.122Z,5.83
2022-10-19T23:53:41.061Z,5.20
2022-10-19T23:56:13.930Z,5.00
2022-10-19T23:58:42.105Z,5.30
